createdAt,value
2022-11-24T09:01:21.843Z,46.73
2022-11-24T09:03:24.504Z,50.58
2022-11-24T09:05:51.294Z,47.33
2022-11-24T09:07:49.067Z,45.83
2022-11-24T09:09:51.603Z,46.47
2022-11-24T09:11:54.022Z,43.42
2022-11-24T09:13:56.369Z,37.80
2022-11-24T09:16:08.109Z,44.72
2022-11-24T09:18:10.414Z,45.85
2022-11-24T09:22:32.967Z,39.53
2022-11-24T09:24:35.270Z,46.55
2022-11-24T09:26:43.012Z,42.78
2022-11-24T09:28:48.991Z,48.35
2022-11-24T09:30:51.232Z,38.13
2022-11-24T09:32:55.886Z,44.05
2022-11-24T09:34:58.438Z,39.50
2022-11-24T09:37:01.365Z,39.22
2022-11-24T09:39:04.266Z,42.92
2022-11-24T09:41:34.394Z,44.53
2022-11-24T09:43:46.256Z,38.85
2022-11-24T09:46:07.665Z,41.35
2022-11-24T09:48:15.909Z,38.28
2022-11-24T09:50:28.183Z,48.35
2022-11-24T09:52:39.086Z,44.88
2022-11-24T09:54:57.537Z,38.63
2022-11-24T09:57:01.570Z,41.85
2022-11-24T09:59:15.022Z,42.75
2022-11-24T10:01:20.745Z,39.58
2022-11-24T10:03:29.636Z,41.15
2022-11-24T10:05:36.008Z,34.92
2022-11-24T10:07:48.007Z,42.42
2022-11-24T10:10:08.420Z,58.72
2022-11-24T10:12:22.980Z,38.35
2022-11-24T10:15:03.941Z,39.53
2022-11-24T10:17:12.503Z,44.20
2022-11-24T10:19:44.140Z,44.45
2022-11-24T10:21:49.497Z,32.50
2022-11-24T10:24:23.141Z,35.63
2022-11-24T10:26:25.283Z,40.80
2022-11-24T10:28:37.763Z,41.53
2022-11-24T10:30:40.512Z,34.72
2022-11-24T10:33:08.404Z,35.33
2022-11-24T10:35:15.763Z,37.97
2022-11-24T10:37:40.758Z,37.40
2022-11-24T10:42:53.783Z,36.37
2022-11-24T10:45:17.636Z,38.55
2022-11-24T10:47:22.840Z,31.70
2022-11-24T10:49:30.112Z,35.55
2022-11-24T10:52:16.129Z,39.30
2022-11-24T10:54:22.037Z,38.75
2022-11-24T10:56:24.636Z,39.10
2022-11-24T10:58:37.919Z,38.10
2022-11-24T11:00:40.400Z,47.50
2022-11-24T11:02:42.962Z,36.13
2022-11-24T11:04:45.229Z,34.80
2022-11-24T11:06:47.598Z,39.67
2022-11-24T11:09:10.510Z,35.08
2022-11-24T11:11:28.526Z,36.45
2022-11-24T11:13:32.354Z,33.65
2022-11-24T11:15:35.620Z,29.70
2022-11-24T11:17:39.247Z,29.85
2022-11-24T11:19:54.184Z,42.42
2022-11-24T11:22:04.805Z,27.37
2022-11-24T11:24:16.934Z,30.12
2022-11-24T11:26:25.269Z,29.75
2022-11-24T11:28:29.533Z,29.67
2022-11-24T11:35:24.150Z,44.50
2022-11-24T11:37:30.748Z,25.05
2022-11-24T11:39:37.877Z,34.42
2022-11-24T11:41:46.501Z,31.92
2022-11-24T11:43:56.247Z,28.10
2022-11-24T11:46:09.384Z,33.25
2022-11-24T11:48:36.988Z,26.80
2022-11-24T11:53:47.225Z,31.17
2022-11-24T11:56:08.341Z,25.33
2022-11-24T12:00:20.361Z,24.95
2022-11-24T12:03:01.649Z,27.58
2022-11-24T12:05:42.309Z,20.60
2022-11-24T12:08:03.473Z,27.33
2022-11-24T12:10:27.412Z,24.05
2022-11-24T12:12:54.894Z,24.55
2022-11-24T12:15:10.692Z,29.87
2022-11-24T12:17:25.917Z,26.92
2022-11-24T12:19:50.772Z,31.58
2022-11-24T12:22:23.964Z,26.90
2022-11-24T12:25:19.946Z,28.25
2022-11-24T12:27:54.300Z,19.58
2022-11-24T12:30:19.497Z,29.63
2022-11-24T12:32:31.060Z,32.33
2022-11-24T12:34:53.892Z,19.98
2022-11-24T12:37:21.789Z,20.62
2022-11-24T12:39:49.667Z,19.67
2022-11-24T12:42:23.726Z,21.73
2022-11-24T12:44:44.596Z,23.65
2022-11-24T12:47:25.576Z,20.77
2022-11-24T12:51:42.118Z,21.65
2022-11-24T12:53:48.152Z,20.55
2022-11-24T12:55:51.352Z,20.02
2022-11-24T12:58:18.253Z,20.35
2022-11-24T13:00:40.619Z,24.00
2022-11-24T13:03:19.505Z,22.02
2022-11-24T13:05:39.078Z,17.58
2022-11-24T13:07:49.781Z,20.30
2022-11-24T13:12:15.768Z,19.55
2022-11-24T13:14:32.934Z,23.62
2022-11-24T13:19:34.981Z,22.23
2022-11-24T13:21:40.505Z,25.92
2022-11-24T13:23:42.826Z,21.27
2022-11-24T13:26:15.236Z,21.77
2022-11-24T13:29:05.745Z,22.10
2022-11-24T13:31:22.817Z,18.80
2022-11-24T13:33:33.444Z,24.23
2022-11-24T13:35:35.682Z,18.77
2022-11-24T13:37:37.868Z,18.08
2022-11-24T13:40:00.120Z,19.08
2022-11-24T13:42:02.420Z,23.50
2022-11-24T13:44:13.443Z,19.80
2022-11-24T13:46:57.553Z,17.17
2022-11-24T13:49:02.438Z,22.52
2022-11-24T13:51:22.530Z,20.35
2022-11-24T13:53:36.367Z,23.52
2022-11-24T13:55:41.002Z,19.70
2022-11-24T13:57:46.260Z,20.67
2022-11-24T13:59:48.900Z,20.70
2022-11-24T14:01:58.255Z,21.20
2022-11-24T14:04:34.429Z,19.27
2022-11-24T14:06:52.148Z,19.52
2022-11-24T14:08:55.612Z,19.52
2022-11-24T14:11:00.560Z,21.23
2022-11-24T14:13:27.678Z,18.05
2022-11-24T14:15:34.262Z,23.85
2022-11-24T14:17:37.685Z,21.30
2022-11-24T14:19:40.832Z,21.00
2022-11-24T14:21:44.411Z,22.87
2022-11-24T14:23:54.291Z,20.12
2022-11-24T14:25:56.627Z,21.77
2022-11-24T14:28:00.423Z,24.63
2022-11-24T14:30:16.353Z,19.25
2022-11-24T14:32:18.709Z,27.90
2022-11-24T14:34:23.047Z,26.12
2022-11-24T14:36:25.798Z,21.40
2022-11-24T14:38:28.140Z,22.50
2022-11-24T14:40:40.563Z,26.20
2022-11-24T14:42:50.769Z,22.40
2022-11-24T14:45:03.086Z,19.52
2022-11-24T14:47:07.541Z,21.10
2022-11-24T14:49:10.502Z,23.65
2022-11-24T14:51:21.813Z,21.10
2022-11-24T14:53:26.341Z,21.08
2022-11-24T14:55:31.707Z,26.85
2022-11-24T14:57:36.520Z,21.77
2022-11-24T14:59:39.571Z,22.83
2022-11-24T15:01:42.078Z,24.20
2022-11-24T15:03:44.449Z,22.62
2022-11-24T15:05:58.867Z,27.42
2022-11-24T15:08:03.084Z,20.75
2022-11-24T15:10:19.180Z,26.02
2022-11-24T15:12:30.774Z,20.95
2022-11-24T15:14:44.958Z,20.33
2022-11-24T15:16:47.395Z,28.52
2022-11-24T15:18:58.506Z,28.38
2022-11-24T15:21:01.265Z,23.20
2022-11-24T15:23:25.898Z,25.35
2022-11-24T15:25:31.642Z,20.90
2022-11-24T15:27:34.456Z,21.75
2022-11-24T15:29:36.629Z,23.62
2022-11-24T15:31:46.315Z,26.98
2022-11-24T15:33:51.785Z,22.87
2022-11-24T15:35:54.523Z,32.20
2022-11-24T15:37:56.751Z,22.52
2022-11-24T15:39:59.276Z,30.10
2022-11-24T15:42:01.590Z,23.10
2022-11-24T15:44:04.018Z,25.50
2022-11-24T15:46:08.387Z,26.08
2022-11-24T15:48:16.296Z,22.67
2022-11-24T15:50:21.173Z,29.90
2022-11-24T15:52:23.966Z,22.95
2022-11-24T15:54:27.755Z,21.55
2022-11-24T15:56:41.844Z,26.08
2022-11-24T15:58:44.386Z,21.62
2022-11-24T16:00:46.747Z,32.72
2022-11-24T16:02:50.037Z,28.65
2022-11-24T16:04:52.428Z,22.67
2022-11-24T16:06:54.647Z,24.50
2022-11-24T16:08:58.186Z,28.27
2022-11-24T16:11:00.419Z,21.05
2022-11-24T16:13:02.736Z,27.08
2022-11-24T16:15:05.691Z,26.20
2022-11-24T16:17:07.969Z,31.73
2022-11-24T16:19:10.877Z,28.17
2022-11-24T16:21:13.553Z,26.90
2022-11-24T16:23:15.870Z,29.27
2022-11-24T16:25:18.762Z,25.05
2022-11-24T16:27:22.388Z,27.17
2022-11-24T16:29:24.791Z,27.10
2022-11-24T16:31:27.824Z,27.30
2022-11-24T16:33:30.584Z,25.08
2022-11-24T16:35:33.869Z,28.80
2022-11-24T16:37:36.679Z,24.40
2022-11-24T16:39:39.237Z,24.20
2022-11-24T16:41:41.628Z,28.52
2022-11-24T16:43:43.897Z,25.27
2022-11-24T16:45:46.879Z,29.25
2022-11-24T16:47:49.209Z,25.33
2022-11-24T16:49:51.598Z,27.15
2022-11-24T16:51:54.107Z,29.05
2022-11-24T16:54:01.802Z,23.65
2022-11-24T16:56:04.477Z,27.35
2022-11-24T16:58:07.347Z,24.40
2022-11-24T17:00:10.512Z,23.33
2022-11-24T17:02:13.827Z,26.45
2022-11-24T17:04:18.290Z,31.33
2022-11-24T17:06:21.525Z,26.45
2022-11-24T17:08:23.811Z,38.67
2022-11-24T17:10:26.717Z,27.83
2022-11-24T17:12:30.109Z,29.40
2022-11-24T17:14:33.409Z,27.50
2022-11-24T17:16:38.117Z,24.98
2022-11-24T17:18:41.443Z,26.23
2022-11-24T17:20:43.914Z,28.85
2022-11-24T17:22:46.854Z,30.05
2022-11-24T17:24:49.538Z,32.25
2022-11-24T17:26:52.078Z,32.08
2022-11-24T17:28:54.856Z,31.02
2022-11-24T17:30:57.454Z,22.25
2022-11-24T17:33:00.104Z,27.37
2022-11-24T17:35:03.039Z,26.42
2022-11-24T17:37:05.780Z,29.37
2022-11-24T17:39:09.345Z,31.30
2022-11-24T17:41:12.850Z,31.65
2022-11-24T17:43:15.494Z,24.65
2022-11-24T17:45:19.473Z,24.55
2022-11-24T17:47:22.475Z,26.27
2022-11-24T17:49:28.028Z,25.25
2022-11-24T17:51:31.191Z,27.23
2022-11-24T17:53:37.374Z,25.83
2022-11-24T17:55:41.412Z,26.65
2022-11-24T17:57:44.245Z,24.75
2022-11-24T17:59:48.023Z,26.50
2022-11-24T18:01:50.806Z,25.17
2022-11-24T18:03:54.762Z,23.45
2022-11-24T18:06:11.881Z,29.87
2022-11-24T18:08:14.608Z,29.48
2022-11-24T18:10:17.716Z,27.05
2022-11-24T18:12:20.411Z,28.50
2022-11-24T18:14:23.108Z,25.88
2022-11-24T18:16:28.457Z,27.92
2022-11-24T18:18:34.378Z,28.58
2022-11-24T18:20:39.766Z,26.00
2022-11-24T18:23:04.519Z,29.60
2022-11-24T18:25:05.744Z,28.85
2022-11-24T18:27:08.725Z,31.98
2022-11-24T18:29:13.349Z,24.35
2022-11-24T18:31:18.568Z,28.77
2022-11-24T18:33:21.354Z,25.17
2022-11-24T18:35:24.295Z,26.85
2022-11-24T18:37:27.012Z,30.00
2022-11-24T18:39:30.409Z,28.85
2022-11-24T18:41:33.958Z,29.23
2022-11-24T18:43:38.669Z,24.10
2022-11-24T18:45:41.739Z,28.58
2022-11-24T18:47:44.872Z,33.92
2022-11-24T18:49:47.580Z,35.65
2022-11-24T18:51:50.330Z,30.77
2022-11-24T18:53:58.471Z,30.85
2022-11-24T18:56:04.068Z,29.15
2022-11-24T18:58:06.767Z,28.67
2022-11-24T19:00:10.541Z,23.95
2022-11-24T19:02:13.591Z,27.75
2022-11-24T19:04:16.456Z,26.10
2022-11-24T19:06:34.996Z,25.02
2022-11-24T19:08:38.237Z,27.50
2022-11-24T19:10:41.221Z,25.92
2022-11-24T19:12:45.628Z,29.35
2022-11-24T19:14:48.411Z,31.30
2022-11-24T19:16:50.858Z,22.67
2022-11-24T19:18:57.777Z,33.70
2022-11-24T19:21:00.544Z,25.42
2022-11-24T19:23:04.299Z,30.05
2022-11-24T19:25:07.960Z,24.45
2022-11-24T19:27:10.950Z,23.90
2022-11-24T19:29:13.650Z,29.25
2022-11-24T19:31:18.278Z,29.92
2022-11-24T19:33:22.058Z,28.85
2022-11-24T19:35:24.861Z,28.02
2022-11-24T19:37:30.977Z,35.35
2022-11-24T19:39:33.750Z,28.15
2022-11-24T19:41:39.420Z,30.60
2022-11-24T19:43:43.939Z,28.70
2022-11-24T19:45:46.915Z,27.52
2022-11-24T19:47:49.836Z,26.15
2022-11-24T19:49:52.443Z,33.42
2022-11-24T19:51:56.171Z,25.52
2022-11-24T19:54:00.350Z,26.98
2022-11-24T19:56:12.150Z,32.85
2022-11-24T19:58:14.796Z,32.13
2022-11-24T20:00:18.330Z,25.50
2022-11-24T20:02:21.343Z,33.78
2022-11-24T20:04:24.299Z,30.55
2022-11-24T20:06:31.982Z,27.55
2022-11-24T20:08:36.339Z,34.83
2022-11-24T20:10:42.463Z,25.92
2022-11-24T20:12:45.378Z,33.22
2022-11-24T20:14:50.281Z,29.17
2022-11-24T20:16:53.238Z,29.33
2022-11-24T20:18:58.471Z,30.10
2022-11-24T20:21:09.339Z,27.70
2022-11-24T20:23:14.129Z,32.42
2022-11-24T20:25:16.596Z,28.80
2022-11-24T20:27:20.605Z,24.55
2022-11-24T20:29:24.670Z,33.50
2022-11-24T20:31:32.415Z,27.62
2022-11-24T20:33:38.071Z,33.03
2022-11-24T20:35:41.106Z,26.37
2022-11-24T20:37:45.996Z,23.98
2022-11-24T20:39:50.381Z,22.02
2022-11-24T20:41:54.104Z,30.88
2022-11-24T20:43:59.787Z,28.58
2022-11-24T20:46:04.826Z,35.05
2022-11-24T20:48:09.165Z,26.92
2022-11-24T20:50:12.488Z,28.83
2022-11-24T20:52:15.397Z,26.30
2022-11-24T20:54:18.853Z,33.22
2022-11-24T20:56:23.628Z,25.50
2022-11-24T20:58:26.581Z,29.02
2022-11-24T21:00:31.581Z,30.73
2022-11-24T21:02:34.380Z,33.78
2022-11-24T21:04:37.618Z,29.92
2022-11-24T21:06:41.133Z,27.55
2022-11-24T21:08:43.660Z,24.85
2022-11-24T21:10:53.551Z,26.95
2022-11-24T21:12:56.126Z,30.60
2022-11-24T21:14:58.443Z,29.33
2022-11-24T21:17:01.046Z,27.98
2022-11-24T21:19:09.242Z,33.85
2022-11-24T21:21:12.592Z,29.27
2022-11-24T21:23:15.476Z,29.77
2022-11-24T21:25:17.969Z,27.37
2022-11-24T21:27:20.363Z,28.80
2022-11-24T21:29:25.868Z,30.85
2022-11-24T21:31:28.262Z,25.42
2022-11-24T21:33:30.705Z,32.13
2022-11-24T21:35:36.857Z,26.23
2022-11-24T21:37:39.107Z,30.88
2022-11-24T21:39:44.629Z,29.12
2022-11-24T21:41:47.788Z,35.25
2022-11-24T21:43:51.648Z,24.35
2022-11-24T21:45:53.959Z,30.52
2022-11-24T21:47:56.691Z,28.65
2022-11-24T21:49:58.963Z,28.33
2022-11-24T21:52:01.343Z,32.70
2022-11-24T21:54:03.956Z,27.75
2022-11-24T21:56:09.992Z,27.02
2022-11-24T21:58:12.264Z,23.50
2022-11-24T22:00:15.899Z,27.48
2022-11-24T22:02:18.622Z,25.60
2022-11-24T22:04:20.832Z,27.73
2022-11-24T22:06:23.190Z,26.33
2022-11-24T22:08:27.042Z,30.88
2022-11-24T22:10:29.250Z,27.65
2022-11-24T22:12:31.470Z,24.85
2022-11-24T22:14:37.514Z,26.87
2022-11-24T22:16:42.585Z,27.62
2022-11-24T22:18:45.963Z,28.67
2022-11-24T22:20:55.199Z,29.45
2022-11-24T22:22:57.460Z,30.67
2022-11-24T22:24:59.654Z,25.00
2022-11-24T22:27:03.019Z,28.85
2022-11-24T22:29:06.052Z,30.95
2022-11-24T22:31:11.565Z,27.85
2022-11-24T22:33:14.039Z,27.17
2022-11-24T22:35:16.260Z,32.88
2022-11-24T22:37:18.527Z,30.55
2022-11-24T22:39:21.016Z,30.17
2022-11-24T22:41:23.995Z,29.15
2022-11-24T22:43:26.366Z,28.00
2022-11-24T22:45:28.829Z,32.05
2022-11-24T22:47:31.039Z,30.55
2022-11-24T22:49:33.376Z,29.95
2022-11-24T22:51:39.402Z,34.95
2022-11-24T22:53:42.402Z,37.60
2022-11-24T22:55:44.739Z,30.88
2022-11-24T22:57:48.475Z,27.55
2022-11-24T22:59:50.912Z,27.42
2022-11-24T23:01:53.125Z,30.85
2022-11-24T23:03:55.863Z,29.35
2022-11-24T23:06:02.620Z,28.10
2022-11-24T23:08:05.034Z,26.70
2022-11-24T23:10:07.945Z,27.55
2022-11-24T23:12:10.267Z,31.25
2022-11-24T23:14:15.117Z,32.05
2022-11-24T23:16:18.460Z,26.15
2022-11-24T23:18:20.662Z,26.12
2022-11-24T23:20:22.937Z,29.45
2022-11-24T23:22:25.447Z,21.87
